Time;durP1;ratioP1;P1;durP2;ratioP2;P2;SDS_P1;SDS_P2;PMS_P1;PMS_P2;Temp;Humidity;BMP_temperature;BMP_pressure;BME280_temperature;BME280_humidity;BME280_pressure;Samples;Min_cycle;Max_cycle;Signal;HPM_P1;HPM_P2
2021/06/04 00:01:51;;;;;;;1999.90;999.90;;;20.30;99.90;;;;;;5053834;28;20287;-88
2021/06/04 00:04:18;;;;;;;1999.90;999.90;;;20.30;99.90;;;;;;5054519;28;20536;-88
2021/06/04 00:06:44;;;;;;;1999.90;999.90;;;20.30;99.90;;;;;;5107684;22;20214;-83
2021/06/04 00:09:12;;;;;;;1999.90;999.90;;;20.30;99.90;;;;;;5019841;28;20793;-83
2021/06/04 00:11:48;;;;;;;1999.90;999.90;;;20.40;99.90;;;;;;5022467;28;20941;-83
2021/06/04 00:14:24;;;;;;;1999.90;999.90;;;20.40;99.90;;;;;;5022013;28;20430;-83
2021/06/04 00:16:57;;;;;;;1999.90;999.90;;;20.40;99.90;;;;;;5021888;28;20420;-83
2021/06/04 00:19:27;;;;;;;1999.90;999.90;;;20.30;99.90;;;;;;5022773;28;20414;-84
2021/06/04 00:22:04;;;;;;;1999.90;999.90;;;20.20;99.90;;;;;;5023356;28;20482;-83
2021/06/04 00:24:31;;;;;;;1999.90;999.90;;;20.10;99.90;;;;;;5022627;28;20420;-83
2021/06/04 00:26:57;;;;;;;1999.90;999.90;;;20.10;99.90;;;;;;5021811;28;20451;-83
2021/06/04 00:29:23;;;;;;;1999.90;999.90;;;20.20;99.90;;;;;;5023832;28;20425;-84
2021/06/04 00:31:52;;;;;;;1999.90;999.90;;;20.20;99.90;;;;;;5022955;28;20185;-84
2021/06/04 00:34:18;;;;;;;1999.90;999.90;;;20.20;99.90;;;;;;5022563;28;20400;-83
2021/06/04 00:36:44;;;;;;;1999.90;999.90;;;20.20;99.90;;;;;;5022064;28;20425;-84
2021/06/04 00:39:12;;;;;;;1999.90;999.90;;;20.10;99.90;;;;;;5022564;28;20423;-83
2021/06/04 00:41:46;;;;;;;1999.90;999.90;;;20.00;99.90;;;;;;5023179;28;20431;-84
2021/06/04 00:44:12;;;;;;;1999.90;999.90;;;20.10;99.90;;;;;;5021111;28;20413;-84
2021/06/04 00:46:39;;;;;;;1999.90;999.90;;;20.00;99.90;;;;;;5022530;28;20768;-83
2021/06/04 00:49:06;;;;;;;1999.90;999.90;;;19.90;99.90;;;;;;5021757;28;20464;-84
2021/06/04 00:51:38;;;;;;;1999.90;999.90;;;19.80;99.90;;;;;;5021747;28;20428;-83
2021/06/04 00:54:06;;;;;;;1999.90;999.90;;;19.70;99.90;;;;;;5022818;28;20436;-84
2021/06/04 00:56:34;;;;;;;1999.90;999.90;;;19.70;99.90;;;;;;5021607;28;20443;-83
2021/06/04 00:59:00;;;;;;;1999.90;999.90;;;19.70;99.90;;;;;;5022610;28;20429;-83
2021/06/04 01:01:30;;;;;;;1999.90;999.90;;;19.70;99.90;;;;;;5021856;28;20417;-83
2021/06/04 01:04:04;;;;;;;1999.90;999.90;;;19.80;99.90;;;;;;5023194;28;20385;-83
2021/06/04 01:06:58;;;;;;;1999.90;999.90;;;19.80;99.90;;;;;;5022570;28;20443;-83
2021/06/04 01:09:45;;;;;;;1999.90;999.90;;;19.80;99.90;;;;;;5004998;28;20466;-83
2021/06/04 01:12:36;;;;;;;1999.90;999.90;;;19.90;99.90;;;;;;5021544;28;20791;-83
2021/06/04 01:15:14;;;;;;;1999.90;999.90;;;19.90;99.90;;;;;;5022936;28;20406;-83
2021/06/04 01:17:39;;;;;;;1999.90;999.90;;;19.80;99.90;;;;;;5022406;28;20376;-83
2021/06/04 01:20:20;;;;;;;1999.90;999.90;;;19.70;99.90;;;;;;5022413;28;20400;-83
2021/06/04 01:23:14;;;;;;;1999.90;999.90;;;19.70;99.90;;;;;;5020887;28;20259;-83
2021/06/04 01:25:53;;;;;;;1999.90;999.90;;;19.60;99.90;;;;;;5022182;28;20806;-83
2021/06/04 01:28:22;;;;;;;1999.90;999.90;;;19.60;99.90;;;;;;5021310;28;20422;-83
2021/06/04 01:30:52;;;;;;;1999.90;999.90;;;19.60;99.90;;;;;;5022488;28;20812;-83
2021/06/04 01:33:25;;;;;;;1999.90;999.90;;;19.50;99.90;;;;;;5021123;28;20440;-83
2021/06/04 01:35:54;;;;;;;1999.90;999.90;;;19.60;99.90;;;;;;5022970;28;20401;-83
2021/06/04 01:38:26;;;;;;;1999.90;999.90;;;19.50;99.90;;;;;;5023950;28;20458;-83
2021/06/04 01:40:53;;;;;;;1999.90;999.90;;;19.60;99.90;;;;;;5023844;28;20397;-83
2021/06/04 01:43:27;;;;;;;1999.90;999.90;;;19.60;99.90;;;;;;5025438;28;20453;-83
2021/06/04 01:45:58;;;;;;;1999.90;999.90;;;19.50;99.90;;;;;;5025085;28;20489;-83
2021/06/04 01:48:28;;;;;;;1999.90;999.90;;;19.50;99.90;;;;;;5026906;28;20417;-83
2021/06/04 01:51:18;;;;;;;1999.90;999.90;;;19.50;99.90;;;;;;5026755;28;20393;-83
2021/06/04 01:53:50;;;;;;;1999.90;999.90;;;19.50;99.90;;;;;;5026512;28;20387;-83
2021/06/04 01:56:25;;;;;;;1999.90;999.90;;;19.50;99.90;;;;;;5024803;28;20765;-83
2021/06/04 01:58:57;;;;;;;1999.90;999.90;;;19.50;99.90;;;;;;5026797;28;20431;-83
2021/06/04 02:01:32;;;;;;;1999.90;999.90;;;19.50;99.90;;;;;;5026426;28;20381;-83
2021/06/04 02:03:58;;;;;;;1999.90;999.90;;;19.50;99.90;;;;;;5024528;28;20424;-83
2021/06/04 02:06:28;;;;;;;1999.90;999.90;;;19.40;99.90;;;;;;5024486;28;20429;-83
2021/06/04 02:08:57;;;;;;;1999.90;999.90;;;19.50;99.90;;;;;;5025941;28;20456;-83
2021/06/04 02:11:27;;;;;;;1999.90;999.90;;;19.50;99.90;;;;;;5026648;28;20401;-83
2021/06/04 02:13:53;;;;;;;1999.90;999.90;;;19.40;99.90;;;;;;5027217;28;20417;-83
2021/06/04 02:16:43;;;;;;;1999.90;999.90;;;19.30;99.90;;;;;;5025929;28;20408;-83
2021/06/04 02:19:48;;;;;;;1999.90;999.90;;;19.20;99.90;;;;;;5022709;28;20465;-83
2021/06/04 02:22:22;;;;;;;1999.90;999.90;;;19.20;99.90;;;;;;5025589;28;20448;-83
2021/06/04 02:25:11;;;;;;;1999.90;999.90;;;19.10;99.90;;;;;;5025610;28;20398;-83
2021/06/04 02:27:41;;;;;;;1999.90;999.90;;;19.20;99.90;;;;;;5025109;28;20413;-83
2021/06/04 02:30:22;;;;;;;1999.90;999.90;;;19.00;99.90;;;;;;5024528;28;20397;-83
2021/06/04 02:32:52;;;;;;;1999.90;999.90;;;18.90;99.90;;;;;;5025419;28;20412;-83
2021/06/04 02:35:23;;;;;;;1999.90;999.90;;;18.90;99.90;;;;;;5026558;28;20413;-83
2021/06/04 02:37:59;;;;;;;1999.90;999.90;;;18.80;99.90;;;;;;5026359;28;20539;-83
2021/06/04 02:40:33;;;;;;;1999.90;999.90;;;18.80;99.90;;;;;;5027055;28;20474;-83
2021/06/04 02:43:12;;;;;;;1999.90;999.90;;;18.70;99.90;;;;;;5024571;28;20859;-83
2021/06/04 02:46:08;;;;;;;1999.90;999.90;;;18.80;99.90;;;;;;5024761;28;20400;-83
2021/06/04 02:48:34;;;;;;;1999.90;999.90;;;18.80;99.90;;;;;;5024231;28;20433;-83
2021/06/04 02:51:09;;;;;;;1999.90;999.90;;;18.70;99.90;;;;;;5021419;28;20417;-83
2021/06/04 02:53:41;;;;;;;1999.90;999.90;;;18.60;99.90;;;;;;5020954;28;20785;-83
2021/06/04 02:56:09;;;;;;;1999.90;999.90;;;18.50;99.90;;;;;;5021188;28;20405;-83
2021/06/04 02:58:38;;;;;;;1999.90;999.90;;;18.60;99.90;;;;;;5023168;28;20579;-83
2021/06/04 03:01:06;;;;;;;1999.90;999.90;;;18.60;99.90;;;;;;5024936;28;20417;-83
2021/06/04 03:03:33;;;;;;;1999.90;999.90;;;18.50;99.90;;;;;;5025476;28;20448;-83
2021/06/04 03:05:59;;;;;;;1999.90;999.90;;;18.50;99.90;;;;;;5024639;28;20484;-83
2021/06/04 03:08:25;;;;;;;1999.90;999.90;;;18.50;99.90;;;;;;5025624;28;20505;-83
2021/06/04 03:10:53;;;;;;;1999.90;999.90;;;18.50;99.90;;;;;;5021403;28;20462;-83
2021/06/04 03:13:26;;;;;;;1999.90;999.90;;;18.40;99.90;;;;;;5021743;28;20416;-83
2021/06/04 03:16:01;;;;;;;1999.90;999.90;;;18.50;99.90;;;;;;5024186;28;20397;-83
2021/06/04 03:18:35;;;;;;;1999.90;999.90;;;18.40;99.90;;;;;;5022066;28;20432;-83
2021/06/04 03:21:05;;;;;;;1999.90;999.90;;;18.40;99.90;;;;;;5022608;28;20389;-83
2021/06/04 03:23:38;;;;;;;1999.90;999.90;;;18.50;99.90;;;;;;5025083;28;20429;-83
2021/06/04 03:26:11;;;;;;;1999.90;999.90;;;18.40;99.90;;;;;;5024396;28;20411;-83
2021/06/04 03:28:38;;;;;;;1999.90;999.90;;;18.30;99.90;;;;;;5022444;28;20432;-83
2021/06/04 03:31:05;;;;;;;1999.90;999.90;;;18.30;99.90;;;;;;5022480;28;20405;-83
2021/06/04 03:33:33;;;;;;;1999.90;999.90;;;18.40;99.90;;;;;;5025097;28;20467;-83
2021/06/04 03:36:03;;;;;;;1999.90;999.90;;;18.50;99.90;;;;;;5022562;28;20448;-83
2021/06/04 03:38:29;;;;;;;1999.90;999.90;;;18.50;99.90;;;;;;5022591;28;20832;-83
2021/06/04 03:40:55;;;;;;;1999.90;999.90;;;18.50;99.90;;;;;;5023519;28;20423;-83
2021/06/04 03:43:24;;;;;;;1999.90;999.90;;;18.50;99.90;;;;;;5023050;28;20190;-83
2021/06/04 03:45:50;;;;;;;1999.90;999.90;;;18.50;99.90;;;;;;5023678;28;20413;-83
2021/06/04 03:48:20;;;;;;;1999.90;999.90;;;18.40;99.90;;;;;;5024235;28;20432;-83
2021/06/04 03:50:49;;;;;;;1999.90;999.90;;;18.30;99.90;;;;;;5019210;28;20412;-83
2021/06/04 03:53:15;;;;;;;1999.90;999.90;;;18.30;99.90;;;;;;5019514;28;20416;-83
2021/06/04 03:55:41;;;;;;;1999.90;999.90;;;18.30;99.90;;;;;;5024161;28;20409;-83
2021/06/04 03:58:07;;;;;;;1999.90;999.90;;;18.30;99.90;;;;;;5023547;28;20424;-83
2021/06/04 04:00:45;;;;;;;1999.90;999.90;;;18.20;99.90;;;;;;5020374;28;20921;-83
2021/06/04 04:03:11;;;;;;;1999.90;999.90;;;18.10;99.90;;;;;;5022219;28;20450;-82
2021/06/04 04:05:38;;;;;;;1999.90;999.90;;;18.10;99.90;;;;;;5022391;28;20417;-83
2021/06/04 04:08:05;;;;;;;1999.90;999.90;;;18.10;99.90;;;;;;5023235;28;20433;-83
2021/06/04 04:10:31;;;;;;;1999.90;999.90;;;18.20;99.90;;;;;;5022808;28;20779;-83
2021/06/04 04:12:56;;;;;;;1999.90;999.90;;;18.20;99.90;;;;;;5021986;28;20420;-83
2021/06/04 04:15:24;;;;;;;1999.90;999.90;;;18.20;99.90;;;;;;5023220;28;20167;-83
2021/06/04 04:17:54;;;;;;;1999.90;999.90;;;18.30;99.90;;;;;;5022158;28;20176;-83
2021/06/04 04:20:25;;;;;;;1999.90;999.90;;;18.40;99.90;;;;;;5019080;28;20393;-83
2021/06/04 04:22:52;;;;;;;1999.90;999.90;;;18.40;99.90;;;;;;5022531;28;20440;-83
2021/06/04 04:25:18;;;;;;;1999.90;999.90;;;18.30;99.90;;;;;;5022052;28;20405;-83
2021/06/04 04:27:44;;;;;;;1999.90;999.90;;;18.30;99.90;;;;;;5020072;28;20413;-83
2021/06/04 04:30:13;;;;;;;1999.90;999.90;;;18.40;99.90;;;;;;5019850;28;20431;-83
2021/06/04 04:32:38;;;;;;;1999.90;999.90;;;18.40;99.90;;;;;;5019983;28;20178;-82
2021/06/04 04:35:12;;;;;;;1999.90;999.90;;;18.60;99.90;;;;;;5020553;28;20441;-83
2021/06/04 04:37:37;;;;;;;1999.90;999.90;;;18.70;99.90;;;;;;5022459;28;20170;-83
2021/06/04 04:40:06;;;;;;;1999.90;999.90;;;18.70;99.90;;;;;;5019348;28;20412;-83
2021/06/04 04:42:32;;;;;;;1999.90;999.90;;;18.60;99.90;;;;;;5023561;28;20492;-83
2021/06/04 04:45:00;;;;;;;1999.90;999.90;;;18.60;99.90;;;;;;5022043;28;20416;-83
2021/06/04 04:47:26;;;;;;;1999.90;999.90;;;18.60;99.90;;;;;;5020793;28;20497;-83
2021/06/04 04:49:52;;;;;;;1999.90;999.90;;;18.60;99.90;;;;;;5022398;28;20457;-83
2021/06/04 04:52:19;;;;;;;1999.90;999.90;;;18.50;99.90;;;;;;5021656;28;20404;-83
2021/06/04 04:54:49;;;;;;;1999.90;999.90;;;18.50;99.90;;;;;;5005918;28;20417;-83
2021/06/04 04:57:16;;;;;;;1999.90;999.90;;;18.60;99.90;;;;;;5022440;28;20416;-83
2021/06/04 04:59:41;;;;;;;1999.90;999.90;;;18.70;99.90;;;;;;5018255;28;20436;-83
2021/06/04 05:02:08;;;;;;;1999.90;999.90;;;18.70;99.90;;;;;;5021162;28;20522;-83
2021/06/04 05:04:35;;;;;;;1999.90;999.90;;;18.80;99.90;;;;;;5023149;28;20158;-83
2021/06/04 05:07:02;;;;;;;1999.90;999.90;;;18.80;99.90;;;;;;5022332;28;20456;-83
2021/06/04 05:09:27;;;;;;;1999.90;999.90;;;18.80;99.90;;;;;;5021966;28;20438;-83
2021/06/04 05:11:53;;;;;;;1999.90;999.90;;;18.70;99.90;;;;;;5022177;28;20433;-83
2021/06/04 05:14:19;;;;;;;1999.90;999.90;;;18.70;99.90;;;;;;5023102;28;20166;-83
2021/06/04 05:16:45;;;;;;;1999.90;999.90;;;18.70;99.90;;;;;;5022728;28;20580;-83
2021/06/04 05:19:11;;;;;;;1999.90;999.90;;;18.70;99.90;;;;;;5022362;28;20417;-82
2021/06/04 05:21:37;;;;;;;1999.90;999.90;;;18.70;99.90;;;;;;5021258;28;20170;-83
2021/06/04 05:24:04;;;;;;;1999.90;999.90;;;18.80;99.90;;;;;;5022326;28;20457;-83
2021/06/04 05:26:30;;;;;;;1999.90;999.90;;;18.90;99.90;;;;;;5020623;28;20660;-82
2021/06/04 05:28:56;;;;;;;1999.90;999.90;;;18.90;99.90;;;;;;5022734;28;20433;-82
2021/06/04 05:31:25;;;;;;;1999.90;999.90;;;19.00;99.90;;;;;;5021338;28;20413;-82
2021/06/04 05:33:53;;;;;;;1999.90;999.90;;;19.00;99.90;;;;;;5022128;28;20200;-82
2021/06/04 05:36:31;;;;;;;1999.90;999.90;;;19.20;99.90;;;;;;5020482;28;20493;-82
2021/06/04 05:38:58;;;;;;;1999.90;999.90;;;19.30;99.90;;;;;;5020384;28;20727;-82
2021/06/04 05:41:25;;;;;;;1999.90;999.90;;;19.40;99.90;;;;;;5020251;28;20416;-82
2021/06/04 05:43:51;;;;;;;1999.90;999.90;;;19.50;99.90;;;;;;5022101;28;20456;-83
2021/06/04 05:46:20;;;;;;;1999.90;999.90;;;19.60;99.90;;;;;;5021497;28;20409;-82
2021/06/04 05:48:46;;;;;;;1999.90;999.90;;;19.70;99.90;;;;;;5020481;28;20806;-82
2021/06/04 05:51:23;;;;;;;1999.90;999.90;;;19.80;99.90;;;;;;5020497;28;20419;-82
2021/06/04 05:53:49;;;;;;;1999.90;999.90;;;19.90;99.90;;;;;;5021671;28;20436;-82
2021/06/04 05:56:21;;;;;;;1999.90;999.90;;;20.00;99.90;;;;;;5021871;28;20412;-82
2021/06/04 05:58:47;;;;;;;1999.90;999.90;;;20.00;99.90;;;;;;5022556;28;20831;-82
2021/06/04 06:01:17;;;;;;;1999.90;999.90;;;20.10;99.90;;;;;;5020733;28;20433;-82
2021/06/04 06:03:43;;;;;;;1999.90;999.90;;;20.10;99.90;;;;;;5017365;28;20798;-82
2021/06/04 06:06:10;;;;;;;1999.90;999.90;;;20.10;99.90;;;;;;5018644;28;20539;-82
2021/06/04 06:08:36;;;;;;;1999.90;999.90;;;20.10;99.90;;;;;;5018032;28;20188;-82
2021/06/04 06:11:03;;;;;;;1999.90;999.90;;;20.10;99.90;;;;;;5017825;28;20412;-82
2021/06/04 06:13:28;;;;;;;1999.90;999.90;;;20.20;99.90;;;;;;5017620;28;20235;-82
2021/06/04 06:15:55;;;;;;;1999.90;999.90;;;20.30;99.90;;;;;;5016823;28;20448;-82
2021/06/04 06:18:24;;;;;;;1999.90;999.90;;;20.30;99.90;;;;;;5017771;28;20194;-82
2021/06/04 06:20:50;;;;;;;1999.90;999.90;;;20.30;99.90;;;;;;5017562;28;20428;-82
2021/06/04 06:23:25;;;;;;;1999.90;999.90;;;20.40;99.90;;;;;;5016818;28;20816;-82
2021/06/04 06:25:55;;;;;;;1999.90;999.90;;;20.50;99.90;;;;;;5021103;28;20392;-82
2021/06/04 06:28:24;;;;;;;1999.90;999.90;;;20.50;99.90;;;;;;5021526;28;20424;-82
2021/06/04 06:30:50;;;;;;;1999.90;999.90;;;20.50;99.90;;;;;;5021845;28;20417;-82
2021/06/04 06:33:16;;;;;;;1999.90;999.90;;;20.60;99.90;;;;;;5022714;28;20485;-82
2021/06/04 06:35:50;;;;;;;1999.90;999.90;;;20.60;99.90;;;;;;5022339;28;20409;-82
2021/06/04 06:38:16;;;;;;;1999.90;999.90;;;20.70;99.90;;;;;;5023018;28;20187;-82
2021/06/04 06:40:43;;;;;;;1999.90;999.90;;;20.60;99.90;;;;;;5021684;28;20459;-82
2021/06/04 06:43:11;;;;;;;1999.90;999.90;;;20.80;99.90;;;;;;5021524;28;20452;-82
2021/06/04 06:45:38;;;;;;;1999.90;999.90;;;20.90;99.90;;;;;;5021149;28;20411;-82
2021/06/04 06:48:04;;;;;;;1999.90;999.90;;;20.90;99.90;;;;;;5021080;28;20935;-82
2021/06/04 06:50:33;;;;;;;1999.90;999.90;;;21.00;99.90;;;;;;5022807;28;20414;-82
2021/06/04 06:53:00;;;;;;;1999.90;999.90;;;21.10;99.90;;;;;;5023493;28;20406;-82
2021/06/04 06:55:26;;;;;;;1999.90;999.90;;;21.10;99.90;;;;;;5023047;28;20415;-82
2021/06/04 06:57:52;;;;;;;1999.90;999.90;;;21.10;99.90;;;;;;5022767;28;20406;-82
2021/06/04 07:00:24;;;;;;;1999.90;999.90;;;21.20;99.90;;;;;;5021931;28;20268;-82
2021/06/04 07:02:50;;;;;;;1999.90;999.90;;;21.40;99.90;;;;;;5021522;28;20203;-82
2021/06/04 07:05:16;;;;;;;1999.90;999.90;;;21.50;99.90;;;;;;5018784;28;20408;-82
2021/06/04 07:07:42;;;;;;;1999.90;999.90;;;21.50;99.90;;;;;;5020115;28;20182;-82
2021/06/04 07:10:15;;;;;;;1999.90;999.90;;;21.50;99.90;;;;;;5021610;28;20432;-82
2021/06/04 07:12:41;;;;;;;1999.90;999.90;;;21.50;99.90;;;;;;5021399;28;20421;-83
2021/06/04 07:15:09;;;;;;;1999.90;999.90;;;21.60;99.90;;;;;;5023335;28;20413;-82
2021/06/04 07:17:35;;;;;;;1999.90;999.90;;;21.50;99.90;;;;;;5021204;28;20174;-82
2021/06/04 07:20:02;;;;;;;1999.90;999.90;;;21.60;99.90;;;;;;5021276;28;20528;-82
2021/06/04 07:22:31;;;;;;;1999.90;999.90;;;21.80;99.90;;;;;;5023004;28;20455;-82
2021/06/04 07:24:58;;;;;;;1999.90;999.90;;;21.80;99.90;;;;;;5020920;28;20504;-82
2021/06/04 07:27:23;;;;;;;1999.90;999.90;;;21.80;99.90;;;;;;5020799;28;20511;-82
2021/06/04 07:29:49;;;;;;;1999.90;999.90;;;22.00;99.90;;;;;;5020116;28;20976;-82
2021/06/04 07:32:15;;;;;;;1999.90;999.90;;;22.10;99.90;;;;;;5020214;28;20537;-82
2021/06/04 07:34:41;;;;;;;1999.90;999.90;;;22.20;99.90;;;;;;5018509;28;20413;-83
2021/06/04 07:37:06;;;;;;;1999.90;999.90;;;22.30;99.90;;;;;;5017489;28;20174;-83
2021/06/04 07:39:35;;;;;;;1999.90;999.90;;;22.30;99.90;;;;;;5020166;28;20267;-83
2021/06/04 07:42:13;;;;;;;1999.90;999.90;;;22.30;99.90;;;;;;5021980;28;20173;-82
2021/06/04 07:44:39;;;;;;;1999.90;999.90;;;22.20;99.90;;;;;;5020080;28;20408;-82
2021/06/04 07:47:05;;;;;;;1999.90;999.90;;;22.40;99.90;;;;;;5019433;28;20427;-83
2021/06/04 07:49:33;;;;;;;1999.90;999.90;;;22.50;99.90;;;;;;5021189;28;20429;-83
2021/06/04 07:52:00;;;;;;;1999.90;999.90;;;22.60;99.90;;;;;;5020125;28;21004;-83
2021/06/04 07:54:29;;;;;;;1999.90;999.90;;;22.60;99.90;;;;;;5019294;28;20413;-82
2021/06/04 07:56:55;;;;;;;1999.90;999.90;;;22.60;99.90;;;;;;5021394;28;20401;-82
2021/06/04 07:59:22;;;;;;;1999.90;999.90;;;22.70;99.90;;;;;;5019581;28;20813;-83
2021/06/04 08:01:49;;;;;;;1999.90;999.90;;;22.60;99.90;;;;;;5019791;28;20417;-82
2021/06/04 08:04:15;;;;;;;1999.90;999.90;;;22.70;99.90;;;;;;5019667;28;20413;-83
2021/06/04 08:06:42;;;;;;;1999.90;999.90;;;22.70;99.90;;;;;;5019274;28;20450;-81
2021/06/04 08:09:11;;;;;;;1999.90;999.90;;;22.70;99.90;;;;;;5018587;28;20212;-83
2021/06/04 08:11:57;;;;;;;1999.90;999.90;;;22.80;99.90;;;;;;5019158;28;20417;-82
2021/06/04 08:14:25;;;;;;;1999.90;999.90;;;22.90;99.90;;;;;;5020249;28;20390;-83
2021/06/04 08:16:53;;;;;;;1999.90;999.90;;;23.00;99.90;;;;;;5021058;28;20415;-82
2021/06/04 08:19:20;;;;;;;1999.90;999.90;;;23.00;99.90;;;;;;5019728;28;20460;-82
2021/06/04 08:21:49;;;;;;;1999.90;999.90;;;23.00;99.90;;;;;;5018238;28;20413;-82
2021/06/04 08:24:20;;;;;;;1999.90;999.90;;;23.10;99.90;;;;;;5020499;28;20893;-83
2021/06/04 08:26:46;;;;;;;1999.90;999.90;;;23.10;99.90;;;;;;5018475;28;20432;-82
2021/06/04 08:29:12;;;;;;;1999.90;999.90;;;23.20;99.90;;;;;;5020126;28;20520;-82
2021/06/04 08:31:38;;;;;;;1999.90;999.90;;;23.30;99.90;;;;;;5019954;28;20885;-83
2021/06/04 08:34:04;;;;;;;1999.90;999.90;;;23.30;99.90;;;;;;5018719;28;20423;-82
2021/06/04 08:36:34;;;;;;;1999.90;999.90;;;23.20;99.90;;;;;;5019668;28;20416;-82
2021/06/04 08:39:02;;;;;;;1999.90;999.90;;;23.30;99.90;;;;;;5018613;28;20436;-83
2021/06/04 08:41:55;;;;;;;1999.90;999.90;;;23.40;99.90;;;;;;5017969;28;20463;-82
2021/06/04 08:44:28;;;;;;;1999.90;999.90;;;23.40;99.90;;;;;;5021108;28;20389;-83
2021/06/04 08:47:03;;;;;;;1999.90;999.90;;;23.50;99.90;;;;;;5019867;28;20781;-82
2021/06/04 08:49:40;;;;;;;1999.90;999.90;;;23.60;99.90;;;;;;5019031;28;20419;-82
2021/06/04 08:52:26;;;;;;;1999.90;999.90;;;23.60;99.90;;;;;;5019500;28;20373;-82
2021/06/04 08:55:13;;;;;;;1999.90;999.90;;;23.60;99.90;;;;;;5018867;28;20397;-82
2021/06/04 08:57:47;;;;;;;1999.90;999.90;;;23.70;99.90;;;;;;5019178;28;20761;-82
2021/06/04 09:00:27;;;;;;;1999.90;999.90;;;23.70;99.90;;;;;;5017623;28;20408;-82
2021/06/04 09:03:05;;;;;;;1999.90;999.90;;;23.80;99.90;;;;;;5019259;28;20518;-82
2021/06/04 09:05:42;;;;;;;1999.90;999.90;;;23.80;99.90;;;;;;5018935;28;20432;-82
2021/06/04 09:08:14;;;;;;;1999.90;999.90;;;24.00;99.90;;;;;;5019150;28;20425;-83
2021/06/04 09:10:51;;;;;;;1999.90;999.90;;;24.10;99.90;;;;;;5019492;28;20377;-82
2021/06/04 09:13:30;;;;;;;1999.90;999.90;;;24.20;99.90;;;;;;5019094;28;20382;-82
2021/06/04 09:16:27;;;;;;;1999.90;999.90;;;24.50;99.90;;;;;;5017761;28;20408;-82
2021/06/04 09:19:08;;;;;;;1999.90;999.90;;;24.80;99.90;;;;;;5016886;28;20433;-82
2021/06/04 09:21:39;;;;;;;1999.90;999.90;;;25.10;99.90;;;;;;5018576;28;20435;-82
2021/06/04 09:24:08;;;;;;;1999.90;999.90;;;25.20;99.90;;;;;;5018501;28;20844;-83
2021/06/04 09:26:34;;;;;;;1999.90;999.90;;;25.30;99.90;;;;;;5019683;28;20397;-82
2021/06/04 09:29:04;;;;;;;1999.90;999.90;;;25.30;99.90;;;;;;5017427;28;20429;-83
2021/06/04 09:31:36;;;;;;;1999.90;999.90;;;25.40;99.90;;;;;;5017816;28;20773;-82
2021/06/04 09:34:24;;;;;;;1999.90;999.90;;;25.40;99.90;;;;;;5017430;28;20409;-82
2021/06/04 09:37:06;;;;;;;1999.90;999.90;;;25.40;99.90;;;;;;5017324;28;20413;-82
2021/06/04 09:39:37;;;;;;;1999.90;999.90;;;25.40;99.90;;;;;;5016970;28;20480;-82
2021/06/04 09:42:23;;;;;;;1999.90;999.90;;;25.70;99.90;;;;;;5017669;28;20410;-83
2021/06/04 09:45:28;;;;;;;1999.90;999.90;;;25.90;99.90;;;;;;5017093;28;20463;-82
2021/06/04 09:48:28;;;;;;;1999.90;999.90;;;26.00;99.90;;;;;;5015832;28;20937;-82
2021/06/04 09:51:09;;;;;;;1999.90;999.90;;;26.20;99.90;;;;;;5018073;28;20796;-82
2021/06/04 09:53:35;;;;;;;1999.90;999.90;;;26.10;99.90;;;;;;5017605;28;20393;-82
2021/06/04 09:56:06;;;;;;;1999.90;999.90;;;26.00;99.90;;;;;;5018349;28;20406;-83
2021/06/04 09:58:54;;;;;;;1999.90;999.90;;;25.80;99.90;;;;;;5019505;28;20458;-83
2021/06/04 10:01:26;;;;;;;1999.90;999.90;;;25.80;99.90;;;;;;5021701;28;20401;-83
2021/06/04 10:03:57;;;;;;;1999.90;999.90;;;26.10;99.90;;;;;;5022472;28;20883;-83
2021/06/04 10:06:28;;;;;;;1999.90;999.90;;;26.50;99.90;;;;;;5021744;28;20426;-83
2021/06/04 10:09:03;;;;;;;1999.90;999.90;;;26.80;99.90;;;;;;5020932;28;20435;-83
2021/06/04 10:11:46;;;;;;;1999.90;999.90;;;26.80;99.90;;;;;;5022055;28;20419;-82
2021/06/04 10:14:22;;;;;;;1999.90;999.90;;;26.70;99.90;;;;;;5020638;28;20399;-83
2021/06/04 10:19:20;;;;;;;1999.90;999.90;;;27.10;99.90;;;;;;5021153;28;20434;-84
2021/06/04 10:21:48;;;;;;;1999.90;999.90;;;27.20;99.90;;;;;;5019621;28;20428;-81
2021/06/04 10:24:43;;;;;;;1999.90;999.90;;;26.70;99.90;;;;;;5020741;28;20507;-81
2021/06/04 10:27:19;;;;;;;1999.90;999.90;;;26.50;99.90;;;;;;5012190;28;20420;-82
2021/06/04 10:30:20;;;;;;;1999.90;999.90;;;26.50;99.90;;;;;;5020840;28;20425;-81
2021/06/04 10:33:10;;;;;;;1999.90;999.90;;;26.50;99.90;;;;;;5007584;28;20421;-81
2021/06/04 10:35:45;;;;;;;1999.90;999.90;;;27.20;99.90;;;;;;5020895;28;20409;-81
2021/06/04 10:38:15;;;;;;;1999.90;999.90;;;28.00;99.90;;;;;;5020490;28;20510;-81
2021/06/04 10:41:10;;;;;;;1999.90;999.90;;;28.50;94.10;;;;;;5020408;28;20388;-81
2021/06/04 10:43:53;;;;;;;1999.90;999.90;;;28.80;73.20;;;;;;5020020;28;21022;-81
2021/06/04 10:46:34;;;;;;;1999.90;999.90;;;29.10;89.30;;;;;;5018978;28;20401;-81
2021/06/04 10:49:17;;;;;;;1999.90;999.90;;;29.00;92.40;;;;;;5021004;28;20471;-81
2021/06/04 10:52:07;;;;;;;1999.90;999.90;;;28.90;83.90;;;;;;5020831;28;20393;-81
2021/06/04 10:54:32;;;;;;;1999.90;999.90;;;28.90;88.80;;;;;;5019322;28;20947;-81
2021/06/04 10:57:00;;;;;;;1999.90;999.90;;;29.10;77.70;;;;;;5018871;28;20417;-81
2021/06/04 11:00:03;;;;;;;1999.90;999.90;;;29.50;70.80;;;;;;5020271;28;20214;-81
2021/06/04 11:02:29;;;;;;;1999.90;999.90;;;29.80;52.00;;;;;;4998254;28;20456;-81
2021/06/04 11:05:26;;;;;;;1999.90;999.90;;;29.70;21.80;;;;;;5018774;28;20885;-81
2021/06/04 11:08:01;;;;;;;1999.90;999.90;;;29.60;26.60;;;;;;5019415;28;20228;-81
2021/06/04 11:10:55;;;;;;;1999.90;999.90;;;29.60;27.60;;;;;;5019871;28;20483;-81
2021/06/04 11:13:47;;;;;;;1999.90;999.90;;;29.50;32.80;;;;;;5018516;28;20420;-81
2021/06/04 11:16:29;;;;;;;1999.90;999.90;;;29.20;71.30;;;;;;4999207;28;20416;-81
2021/06/04 11:19:10;;;;;;;1999.90;999.90;;;29.30;65.70;;;;;;5020000;28;20866;-81
2021/06/04 11:21:57;;;;;;;1999.90;999.90;;;29.70;78.50;;;;;;5019401;28;20425;-81
2021/06/04 11:24:39;;;;;;;1999.90;999.90;;;30.00;34.10;;;;;;5019105;28;20393;-80
2021/06/04 11:27:06;;;;;;;1999.90;999.90;;;29.90;18.70;;;;;;5018816;28;20392;-81
2021/06/04 11:29:36;;;;;;;1999.90;999.90;;;30.10;19.60;;;;;;5019523;28;20429;-81
2021/06/04 11:32:11;;;;;;;1999.90;999.90;;;30.40;20.40;;;;;;5019724;28;20384;-81
2021/06/04 11:34:49;;;;;;;1999.90;999.90;;;30.50;15.40;;;;;;5018570;28;20405;-81
2021/06/04 11:37:32;;;;;;;1999.90;999.90;;;30.50;12.30;;;;;;5017795;28;20416;-81
2021/06/04 11:40:12;;;;;;;1999.90;999.90;;;30.30;12.90;;;;;;5018611;28;20828;-81
2021/06/04 11:43:09;;;;;;;1999.90;999.90;;;29.80;11.50;;;;;;5019031;28;20433;-81
2021/06/04 11:45:37;;;;;;;1999.90;999.90;;;29.40;14.60;;;;;;5019061;28;20409;-81
2021/06/04 11:48:25;;;;;;;1999.90;999.90;;;29.30;20.00;;;;;;5016987;28;20460;-80
2021/06/04 11:51:17;;;;;;;1999.90;999.90;;;29.20;18.70;;;;;;5018915;28;20401;-82
2021/06/04 11:53:43;;;;;;;1999.90;999.90;;;28.80;23.00;;;;;;5017826;28;20405;-81
2021/06/04 11:56:37;;;;;;;1999.90;999.90;;;28.30;50.90;;;;;;5018666;28;20483;-81
2021/06/04 11:59:05;;;;;;;1999.90;999.90;;;28.10;53.90;;;;;;5017688;28;20429;-81
2021/06/04 12:01:44;;;;;;;1999.90;999.90;;;27.90;53.40;;;;;;5017359;28;20425;-81
2021/06/04 12:04:14;;;;;;;1999.90;999.90;;;27.70;70.40;;;;;;5017864;28;20448;-81
2021/06/04 12:06:42;;;;;;;1999.90;999.90;;;27.70;93.20;;;;;;5089905;23;20487;-80
2021/06/04 12:09:30;;;;;;;1999.90;999.90;;;27.70;99.90;;;;;;5020490;28;20789;-81
2021/06/04 12:12:16;;;;;;;1999.90;999.90;;;27.70;99.90;;;;;;5020721;28;20389;-81
2021/06/04 12:15:02;;;;;;;1999.90;999.90;;;27.50;99.90;;;;;;5019509;28;20461;-81
2021/06/04 12:17:39;;;;;;;1999.90;999.90;;;27.60;99.90;;;;;;5020600;28;20405;-81
2021/06/04 12:20:21;;;;;;;1999.90;999.90;;;27.60;99.90;;;;;;5018984;28;20411;-81
2021/06/04 12:22:48;;;;;;;1999.90;999.90;;;27.70;99.90;;;;;;5020045;28;21017;-81
2021/06/04 12:25:39;;;;;;;1999.90;999.90;;;27.80;99.90;;;;;;5019958;28;20405;-81
2021/06/04 12:28:29;;;;;;;1999.90;999.90;;;27.70;99.90;;;;;;5020376;28;20420;-80